Monaca, Pennsylvania
Current Conditions -  °F | °C
As of 5:47 PM on Saturday 25 Oct 2014 (Local Time) from KBVI Reporting Station
Broken Clouds Broken Clouds  
Wind Chill: 66°   Ceiling: 4800
Heat Index: 66°   Visibility: 10mi
Dew Point: 52°   Wind: 13mph
Humidity: 60%   Direction: 250°WSW
Pressure: 29.75"   Gusts: 17mph
Location:  40.69°N, 80.28°W
Report Text: KBVI 252147Z 25011G15KT 10SM SCT040 BKN048 19/11 A2975
Loading
Personal Weather Stations






























Interactive Weather Map
Tropical Storm Tracking
New forecast layout! Learn more

10-Day Weather Forecast

Advertisements
Track Severe Weather on mobile